createdAt,value
2023-05-03T00:02:19.312Z,3.15
2023-05-03T00:04:48.211Z,3.30
2023-05-03T00:07:15.935Z,3.17
2023-05-03T00:09:43.364Z,3.20
2023-05-03T00:12:10.914Z,3.10
2023-05-03T00:14:38.615Z,2.72
2023-05-03T00:17:06.279Z,3.35
2023-05-03T00:19:35.368Z,3.40
2023-05-03T00:22:04.177Z,3.13
2023-05-03T00:24:31.843Z,3.05
2023-05-03T00:26:59.354Z,2.70
2023-05-03T00:29:27.449Z,3.00
2023-05-03T00:31:55.105Z,3.28
2023-05-03T00:34:22.598Z,2.85
2023-05-03T00:36:50.250Z,2.90
2023-05-03T00:39:17.734Z,2.95
2023-05-03T00:41:45.357Z,3.03
2023-05-03T00:44:12.813Z,2.67
2023-05-03T00:46:41.006Z,2.35
2023-05-03T00:49:08.649Z,3.08
2023-05-03T00:51:36.218Z,2.63
2023-05-03T00:54:04.595Z,2.70
2023-05-03T00:56:44.032Z,2.90
2023-05-03T00:59:19.598Z,2.55
2023-05-03T01:01:51.829Z,2.33
2023-05-03T01:04:21.891Z,2.38
2023-05-03T01:07:15.287Z,2.60
2023-05-03T01:09:50.598Z,2.38
2023-05-03T01:12:35.080Z,2.47
2023-05-03T01:15:41.687Z,2.50
2023-05-03T01:18:16.698Z,2.40
2023-05-03T01:20:48.214Z,2.60
2023-05-03T01:23:19.515Z,2.53
2023-05-03T01:25:46.963Z,2.40
2023-05-03T01:28:14.442Z,2.25
2023-05-03T01:30:43.195Z,2.50
2023-05-03T01:33:37.246Z,2.05
2023-05-03T01:36:20.087Z,2.28
2023-05-03T01:38:48.915Z,2.30
2023-05-03T01:41:20.055Z,2.40
2023-05-03T01:43:48.849Z,3.55
2023-05-03T01:46:16.704Z,2.20
2023-05-03T01:48:44.235Z,2.47
2023-05-03T01:51:11.917Z,2.08
2023-05-03T01:53:39.560Z,1.92
2023-05-03T01:56:08.661Z,2.35
2023-05-03T01:58:36.517Z,2.38
2023-05-03T02:01:06.567Z,2.20
2023-05-03T02:03:34.776Z,2.13
2023-05-03T02:06:02.378Z,2.40
2023-05-03T02:08:30.094Z,2.10
2023-05-03T02:10:57.806Z,2.00
2023-05-03T02:13:25.359Z,2.33
2023-05-03T02:15:52.853Z,2.13
2023-05-03T02:18:20.503Z,2.38
2023-05-03T02:20:48.150Z,1.92
2023-05-03T02:23:15.832Z,1.92
2023-05-03T02:25:43.389Z,2.38
2023-05-03T02:28:10.960Z,2.05
2023-05-03T02:30:38.667Z,2.20
2023-05-03T02:33:06.633Z,2.03
2023-05-03T02:35:34.180Z,2.17
2023-05-03T02:38:01.744Z,1.80
2023-05-03T02:40:29.402Z,1.80
2023-05-03T02:42:56.941Z,2.50
2023-05-03T02:45:24.592Z,2.10
2023-05-03T02:47:52.319Z,2.47
2023-05-03T02:50:19.906Z,2.50
2023-05-03T02:52:47.461Z,2.28
2023-05-03T02:55:15.313Z,2.20
2023-05-03T02:57:42.871Z,2.33
2023-05-03T03:00:15.526Z,1.70
2023-05-03T03:02:43.219Z,2.13
2023-05-03T03:05:10.983Z,2.40
2023-05-03T03:07:41.644Z,2.50
2023-05-03T03:10:09.612Z,2.72
2023-05-03T03:12:37.926Z,2.50
2023-05-03T03:15:06.115Z,2.42
2023-05-03T03:17:34.753Z,2.05
2023-05-03T03:20:06.366Z,2.10
2023-05-03T03:22:34.068Z,1.73
2023-05-03T03:25:01.848Z,1.83
2023-05-03T03:27:32.008Z,1.90
2023-05-03T03:30:00.233Z,1.80
2023-05-03T03:32:28.091Z,1.90
2023-05-03T03:34:55.911Z,1.58
2023-05-03T03:37:23.614Z,1.60
2023-05-03T03:39:51.139Z,1.80
2023-05-03T03:42:20.836Z,1.58
2023-05-03T03:44:48.478Z,1.70
2023-05-03T03:47:16.242Z,1.38
2023-05-03T03:49:43.989Z,2.10
2023-05-03T03:52:11.659Z,2.03
2023-05-03T03:54:39.163Z,1.75
2023-05-03T03:57:06.804Z,1.92
2023-05-03T03:59:34.289Z,1.67
2023-05-03T04:02:02.021Z,1.70
2023-05-03T04:04:29.534Z,1.88
2023-05-03T04:06:57.016Z,1.80
2023-05-03T04:09:24.735Z,2.00
2023-05-03T04:11:52.390Z,1.92
2023-05-03T04:14:19.839Z,1.60
2023-05-03T04:16:47.360Z,1.73
2023-05-03T04:19:14.892Z,1.77
2023-05-03T04:21:42.362Z,1.60
2023-05-03T04:24:10.174Z,1.92
2023-05-03T04:26:37.843Z,1.90
2023-05-03T04:29:06.467Z,1.75
2023-05-03T04:31:33.946Z,2.03
2023-05-03T04:34:01.614Z,2.13
2023-05-03T04:36:30.119Z,2.05
2023-05-03T04:38:57.675Z,2.25
2023-05-03T04:41:25.791Z,2.00
2023-05-03T04:43:54.011Z,1.65
2023-05-03T04:46:21.689Z,1.75
2023-05-03T04:48:49.126Z,2.17
2023-05-03T04:51:16.909Z,2.13
2023-05-03T04:53:44.375Z,2.13
2023-05-03T04:56:11.974Z,1.80
2023-05-03T04:58:39.514Z,1.75
2023-05-03T05:01:07.504Z,2.25
2023-05-03T05:03:35.147Z,2.30
2023-05-03T05:06:02.813Z,1.73
2023-05-03T05:08:30.548Z,1.80
2023-05-03T05:10:58.405Z,2.22
2023-05-03T05:13:29.024Z,1.90
2023-05-03T05:15:56.468Z,1.92
2023-05-03T05:18:24.003Z,2.10
2023-05-03T05:20:51.514Z,1.73
2023-05-03T05:23:19.902Z,2.13
2023-05-03T05:25:47.820Z,2.13
2023-05-03T05:28:15.268Z,2.13
2023-05-03T05:30:42.861Z,2.20
2023-05-03T05:33:10.378Z,2.13
2023-05-03T05:35:38.070Z,2.67
2023-05-03T05:38:05.687Z,2.25
2023-05-03T05:40:33.715Z,2.40
2023-05-03T05:43:01.250Z,2.03
2023-05-03T05:45:28.777Z,2.55
2023-05-03T05:47:56.443Z,2.30
2023-05-03T05:50:24.244Z,2.33
2023-05-03T05:52:55.290Z,2.15
2023-05-03T05:55:22.914Z,2.15
2023-05-03T05:57:50.784Z,2.45
2023-05-03T06:00:19.296Z,2.58
2023-05-03T06:02:47.171Z,2.47
2023-05-03T06:05:14.801Z,2.33
2023-05-03T06:07:42.414Z,2.50
2023-05-03T06:10:10.469Z,2.40
2023-05-03T06:12:38.036Z,2.83
2023-05-03T06:15:06.306Z,2.40
2023-05-03T06:17:34.700Z,2.10
2023-05-03T06:20:02.888Z,2.65
2023-05-03T06:22:32.095Z,2.78
2023-05-03T06:24:59.972Z,2.70
2023-05-03T06:27:27.504Z,2.42
2023-05-03T06:29:55.080Z,2.90
2023-05-03T06:32:23.688Z,2.60
2023-05-03T06:34:51.339Z,2.63
2023-05-03T06:37:19.037Z,2.83
2023-05-03T06:39:46.673Z,2.80
2023-05-03T06:42:14.327Z,2.60
2023-05-03T06:44:42.648Z,2.67
2023-05-03T06:47:10.276Z,2.85
2023-05-03T06:49:37.835Z,3.08
2023-05-03T06:52:05.775Z,2.85
2023-05-03T06:54:33.252Z,3.15
2023-05-03T06:57:01.967Z,3.60
2023-05-03T06:59:29.545Z,2.97
2023-05-03T07:01:57.363Z,2.85
2023-05-03T07:04:24.944Z,2.90
2023-05-03T07:06:56.398Z,2.92
2023-05-03T07:09:41.456Z,2.90
2023-05-03T07:12:10.843Z,2.97
2023-05-03T07:14:39.998Z,3.00
2023-05-03T07:17:07.639Z,3.30
2023-05-03T07:19:35.610Z,2.95
2023-05-03T07:22:03.901Z,3.20
2023-05-03T07:24:31.636Z,3.20
2023-05-03T07:26:59.308Z,3.10
2023-05-03T07:29:27.810Z,3.28
2023-05-03T07:31:55.549Z,3.17
2023-05-03T07:34:23.366Z,2.78
2023-05-03T07:36:52.250Z,3.22
2023-05-03T07:39:19.859Z,2.60
2023-05-03T07:41:47.525Z,3.05
2023-05-03T07:44:15.024Z,3.05
2023-05-03T07:46:42.553Z,2.80
2023-05-03T07:49:10.191Z,2.92
2023-05-03T07:51:38.908Z,3.35
2023-05-03T07:54:07.008Z,3.17
2023-05-03T07:56:34.963Z,3.38
2023-05-03T07:59:09.258Z,2.85
2023-05-03T08:01:39.618Z,3.05
2023-05-03T08:04:07.443Z,3.47
2023-05-03T08:06:39.028Z,2.83
2023-05-03T08:09:06.750Z,3.40
2023-05-03T08:11:34.600Z,3.08
2023-05-03T08:14:02.181Z,3.15
2023-05-03T08:16:29.894Z,3.25
2023-05-03T08:19:00.330Z,2.85
2023-05-03T08:21:28.766Z,2.90
2023-05-03T08:23:56.393Z,3.50
2023-05-03T08:26:24.788Z,2.83
2023-05-03T08:28:52.372Z,3.00
2023-05-03T08:31:20.198Z,2.72
2023-05-03T08:33:47.767Z,3.05
2023-05-03T08:36:15.511Z,3.22
2023-05-03T08:38:43.036Z,3.20
2023-05-03T08:41:31.686Z,2.55
2023-05-03T08:44:00.523Z,3.03
2023-05-03T08:46:29.412Z,2.75
2023-05-03T08:48:57.698Z,3.13
2023-05-03T08:51:25.626Z,3.17
2023-05-03T08:53:53.272Z,3.30
2023-05-03T08:56:30.438Z,3.50
2023-05-03T08:59:05.065Z,3.67
2023-05-03T09:01:32.705Z,3.78
2023-05-03T09:04:00.563Z,3.30
2023-05-03T09:06:28.696Z,2.97
2023-05-03T09:08:56.715Z,3.67
2023-05-03T09:11:26.432Z,2.50
2023-05-03T09:13:54.708Z,3.30
2023-05-03T09:16:30.400Z,3.80
2023-05-03T09:19:03.130Z,3.63
2023-05-03T09:21:33.978Z,3.50
2023-05-03T09:24:04.713Z,3.38
2023-05-03T09:26:35.972Z,3.10
2023-05-03T09:29:05.660Z,3.33
2023-05-03T09:31:34.834Z,3.38
2023-05-03T09:34:05.318Z,3.15
2023-05-03T09:36:48.312Z,3.33
2023-05-03T09:39:20.195Z,4.18
2023-05-03T09:41:48.094Z,3.95
2023-05-03T09:44:16.952Z,3.88
2023-05-03T09:47:03.410Z,4.38
2023-05-03T09:49:33.390Z,4.13
2023-05-03T09:52:02.215Z,4.25
2023-05-03T09:54:34.776Z,4.00
2023-05-03T09:57:05.970Z,3.85
2023-05-03T09:59:35.090Z,4.40
2023-05-03T10:02:07.993Z,4.47
2023-05-03T10:04:51.533Z,4.55
2023-05-03T10:07:20.949Z,5.10
2023-05-03T10:09:49.028Z,4.60
2023-05-03T10:12:18.078Z,4.40
2023-05-03T10:14:47.878Z,3.53
2023-05-03T10:17:15.554Z,3.75
2023-05-03T10:19:57.060Z,3.97
2023-05-03T10:22:24.843Z,4.00
2023-05-03T10:25:12.192Z,4.20
2023-05-03T10:27:47.415Z,4.35
2023-05-03T10:30:38.709Z,3.58
2023-05-03T10:33:31.185Z,4.05
2023-05-03T10:36:02.221Z,3.42
2023-05-03T10:38:30.346Z,3.10
2023-05-03T10:41:01.740Z,3.60
2023-05-03T10:43:35.027Z,4.20
2023-05-03T10:46:07.525Z,4.28
2023-05-03T10:48:35.964Z,15.07
2023-05-03T10:51:34.299Z,11.02
2023-05-03T10:54:01.889Z,3.78
2023-05-03T10:56:29.708Z,7.35
2023-05-03T10:58:59.288Z,42.83
2023-05-03T11:01:28.302Z,33.53
2023-05-03T11:04:25.756Z,45.22
2023-05-03T11:06:56.996Z,28.88
2023-05-03T11:09:32.528Z,40.25
2023-05-03T11:12:04.030Z,21.38
2023-05-03T11:14:31.899Z,43.20
2023-05-03T11:16:59.961Z,10.23
2023-05-03T11:19:28.927Z,7.28
2023-05-03T11:21:57.441Z,10.85
2023-05-03T11:24:25.154Z,20.25
2023-05-03T11:26:52.840Z,6.30
2023-05-03T11:29:22.144Z,5.85
2023-05-03T11:31:50.884Z,11.00
2023-05-03T11:34:18.725Z,15.45
2023-05-03T11:36:46.366Z,7.38
2023-05-03T11:39:16.434Z,4.10
2023-05-03T11:41:44.773Z,13.15
2023-05-03T11:44:17.742Z,3.65
2023-05-03T11:46:48.077Z,3.65
2023-05-03T11:49:22.353Z,5.55
2023-05-03T11:51:53.811Z,4.55
2023-05-03T11:54:27.391Z,3.58
2023-05-03T11:59:40.727Z,5.88
2023-05-03T12:02:13.010Z,3.25
2023-05-03T12:04:42.928Z,3.92
2023-05-03T12:07:15.095Z,5.32
2023-05-03T12:09:55.397Z,3.35
2023-05-03T12:12:32.588Z,3.17
2023-05-03T12:15:04.563Z,10.60
2023-05-03T12:17:44.038Z,3.63
2023-05-03T12:22:58.897Z,2.83
2023-05-03T12:25:33.946Z,3.90
2023-05-03T12:28:19.590Z,2.58
2023-05-03T12:30:48.393Z,2.63
2023-05-03T12:33:17.058Z,2.88
2023-05-03T12:35:47.906Z,2.58
2023-05-03T12:38:17.699Z,2.60
2023-05-03T12:40:47.554Z,2.20
2023-05-03T12:43:16.328Z,2.60
2023-05-03T12:45:47.993Z,2.60
2023-05-03T12:48:25.340Z,2.15
2023-05-03T12:51:05.575Z,2.70
2023-05-03T12:53:46.875Z,2.47
2023-05-03T12:56:15.372Z,2.65
2023-05-03T12:59:07.312Z,2.80
2023-05-03T13:06:42.116Z,2.67
2023-05-03T13:09:19.130Z,2.88
2023-05-03T13:11:50.442Z,2.65
2023-05-03T13:14:20.952Z,2.80
2023-05-03T13:16:52.238Z,2.67
2023-05-03T13:19:19.996Z,2.60
2023-05-03T13:21:48.836Z,2.70
2023-05-03T13:24:16.985Z,2.78
2023-05-03T13:26:44.712Z,2.70
2023-05-03T13:29:12.399Z,2.53
2023-05-03T13:31:39.962Z,2.58
2023-05-03T13:34:07.800Z,2.50
2023-05-03T13:36:35.839Z,2.30
2023-05-03T13:39:03.476Z,2.60
2023-05-03T13:41:31.776Z,2.45
2023-05-03T13:43:59.400Z,2.63
2023-05-03T13:46:27.115Z,2.50
2023-05-03T13:48:56.593Z,2.83
2023-05-03T13:51:25.978Z,2.50
2023-05-03T13:53:53.813Z,2.58
2023-05-03T13:56:21.867Z,2.58
2023-05-03T13:58:49.378Z,2.78
2023-05-03T14:01:18.126Z,3.15
2023-05-03T14:03:46.115Z,3.00
2023-05-03T14:06:14.005Z,2.80
2023-05-03T14:08:41.601Z,3.10
2023-05-03T14:11:19.690Z,2.70
2023-05-03T14:13:55.384Z,3.17
2023-05-03T14:18:57.421Z,2.80
2023-05-03T14:21:25.124Z,2.90
2023-05-03T14:23:53.698Z,2.80
2023-05-03T14:26:22.344Z,2.95
2023-05-03T14:28:50.051Z,3.15
2023-05-03T14:31:18.162Z,3.03
2023-05-03T14:33:46.054Z,2.78
2023-05-03T14:36:14.522Z,2.90
2023-05-03T14:38:42.094Z,3.00
2023-05-03T14:41:09.892Z,2.80
2023-05-03T14:43:38.160Z,3.30
2023-05-03T14:46:05.845Z,3.30
2023-05-03T14:48:33.441Z,3.00
2023-05-03T14:51:01.048Z,2.70
2023-05-03T14:53:29.210Z,3.10
2023-05-03T14:55:58.096Z,2.90
2023-05-03T14:58:25.811Z,3.25
2023-05-03T15:00:53.652Z,3.20
2023-05-03T15:03:21.466Z,3.10
2023-05-03T15:05:50.804Z,3.10
2023-05-03T15:08:19.921Z,2.88
2023-05-03T15:10:48.179Z,2.85
2023-05-03T15:13:18.813Z,3.03
2023-05-03T15:16:04.974Z,3.10
2023-05-03T15:18:32.476Z,2.88
2023-05-03T15:21:00.140Z,3.35
2023-05-03T15:23:27.712Z,7.30
2023-05-03T15:25:55.235Z,5.20
2023-05-03T15:28:22.876Z,2.72
2023-05-03T15:30:51.084Z,3.33
2023-05-03T15:33:18.998Z,3.20
2023-05-03T15:35:46.723Z,3.75
2023-05-03T15:38:14.236Z,5.13
2023-05-03T15:40:41.969Z,6.25
2023-05-03T15:43:09.859Z,3.67
2023-05-03T15:45:37.617Z,2.88
2023-05-03T15:48:05.491Z,3.25
2023-05-03T15:50:33.833Z,2.92
2023-05-03T15:53:01.530Z,3.50
2023-05-03T15:55:29.209Z,3.30
2023-05-03T15:57:57.416Z,3.05
2023-05-03T16:00:26.022Z,3.47
2023-05-03T16:02:53.920Z,3.53
2023-05-03T16:05:21.777Z,3.05
2023-05-03T16:07:49.786Z,3.15
2023-05-03T16:10:18.305Z,3.83
2023-05-03T16:12:45.898Z,3.38
2023-05-03T16:15:13.838Z,3.55
2023-05-03T16:17:41.659Z,3.88
2023-05-03T16:20:13.556Z,3.10
2023-05-03T16:22:41.500Z,3.67
2023-05-03T16:25:11.488Z,3.83
2023-05-03T16:27:42.661Z,4.05
2023-05-03T16:30:11.173Z,3.50
2023-05-03T16:32:39.107Z,3.45
2023-05-03T16:35:06.989Z,3.33
2023-05-03T16:37:37.784Z,3.20
2023-05-03T16:40:10.734Z,3.05
2023-05-03T16:42:42.745Z,3.38
2023-05-03T16:45:11.162Z,3.20
2023-05-03T16:47:39.978Z,2.92
2023-05-03T16:50:45.861Z,3.80
2023-05-03T16:53:13.354Z,3.28
2023-05-03T16:55:40.513Z,3.55
2023-05-03T16:58:08.305Z,2.72
2023-05-03T17:00:35.558Z,3.53
2023-05-03T17:03:03.380Z,4.05
2023-05-03T17:05:33.374Z,3.30
2023-05-03T17:08:04.503Z,3.72
2023-05-03T17:10:31.744Z,3.55
2023-05-03T17:13:02.109Z,3.60
2023-05-03T17:15:29.434Z,3.95
2023-05-03T17:17:56.678Z,5.07
2023-05-03T17:20:23.892Z,3.65
2023-05-03T17:22:51.687Z,3.83
2023-05-03T17:25:19.084Z,3.55
2023-05-03T17:27:48.637Z,3.67
2023-05-03T17:30:34.868Z,3.70
2023-05-03T17:33:02.588Z,3.72
2023-05-03T17:35:29.794Z,3.50
2023-05-03T17:37:57.290Z,4.30
2023-05-03T17:40:25.325Z,3.80
2023-05-03T17:42:52.519Z,3.92
2023-05-03T17:45:19.724Z,4.25
2023-05-03T17:47:48.352Z,4.55
2023-05-03T17:50:15.568Z,4.70
2023-05-03T17:52:43.629Z,4.18
2023-05-03T17:55:12.172Z,4.50
2023-05-03T17:57:40.252Z,3.58
2023-05-03T18:00:11.344Z,3.58
2023-05-03T18:02:38.704Z,3.38
2023-05-03T18:05:06.958Z,2.97
2023-05-03T18:07:34.422Z,2.90
2023-05-03T18:10:02.046Z,3.00
2023-05-03T18:12:32.580Z,3.22
2023-05-03T18:14:59.798Z,3.20
2023-05-03T18:17:27.877Z,3.45
2023-05-03T18:19:56.197Z,3.08
2023-05-03T18:22:23.425Z,3.50
2023-05-03T18:24:55.301Z,3.15
2023-05-03T18:27:41.353Z,3.30
2023-05-03T18:30:09.388Z,3.35
2023-05-03T18:32:36.561Z,4.18
2023-05-03T18:35:03.950Z,3.47
2023-05-03T18:37:32.156Z,3.22
2023-05-03T18:39:59.626Z,2.80
2023-05-03T18:42:27.342Z,2.58
2023-05-03T18:44:54.612Z,2.30
2023-05-03T18:47:40.573Z,2.35
2023-05-03T18:50:08.729Z,2.58
2023-05-03T18:52:35.986Z,2.50
2023-05-03T18:55:03.345Z,2.03
2023-05-03T18:57:30.728Z,2.30
2023-05-03T19:00:01.079Z,2.17
2023-05-03T19:02:33.127Z,2.30
2023-05-03T19:05:00.649Z,2.30
2023-05-03T19:07:28.249Z,2.13
2023-05-03T19:09:58.503Z,2.50
2023-05-03T19:12:25.795Z,2.03
2023-05-03T19:14:53.445Z,2.00
2023-05-03T19:17:20.692Z,2.13
2023-05-03T19:19:47.753Z,3.38
2023-05-03T19:22:15.110Z,2.50
2023-05-03T19:24:44.034Z,2.70
2023-05-03T19:27:11.646Z,2.65
2023-05-03T19:29:38.852Z,2.50
2023-05-03T19:32:06.240Z,2.20
2023-05-03T19:34:36.109Z,2.65
2023-05-03T19:37:03.257Z,2.10
2023-05-03T19:39:32.848Z,2.50
2023-05-03T19:42:00.337Z,2.30
2023-05-03T19:44:30.894Z,2.53
2023-05-03T19:46:58.050Z,2.65
2023-05-03T19:49:25.808Z,2.72
2023-05-03T19:51:56.221Z,2.80
2023-05-03T19:54:23.614Z,3.05
2023-05-03T19:56:50.817Z,3.00
2023-05-03T19:59:18.357Z,2.90
2023-05-03T20:01:45.720Z,2.45
2023-05-03T20:04:13.115Z,2.97
2023-05-03T20:06:41.202Z,3.10
2023-05-03T20:09:09.331Z,2.72
2023-05-03T20:11:36.492Z,2.58
2023-05-03T20:14:03.646Z,2.92
2023-05-03T20:16:33.438Z,3.08
2023-05-03T20:19:01.308Z,3.03
2023-05-03T20:21:29.126Z,3.20
2023-05-03T20:23:56.878Z,3.80
2023-05-03T20:26:24.233Z,3.80
2023-05-03T20:28:51.606Z,4.75
2023-05-03T20:31:18.715Z,5.18
2023-05-03T20:33:46.400Z,4.88
2023-05-03T20:36:16.207Z,4.70
2023-05-03T20:38:43.376Z,4.43
2023-05-03T20:41:10.540Z,4.57
2023-05-03T20:43:37.655Z,5.00
2023-05-03T20:46:05.025Z,4.90
2023-05-03T20:48:32.409Z,4.50
2023-05-03T20:51:00.880Z,4.57
2023-05-03T20:53:28.484Z,4.47
2023-05-03T20:55:57.214Z,4.95
2023-05-03T20:58:24.375Z,4.63
2023-05-03T21:00:53.805Z,4.40
2023-05-03T21:03:26.080Z,4.32
2023-05-03T21:05:53.802Z,4.82
2023-05-03T21:08:21.011Z,5.15
2023-05-03T21:10:48.223Z,4.50
2023-05-03T21:13:36.115Z,4.93
2023-05-03T21:16:03.666Z,4.05
2023-05-03T21:18:30.743Z,4.07
2023-05-03T21:20:57.885Z,4.05
2023-05-03T21:23:43.844Z,3.50
2023-05-03T21:26:30.469Z,3.55
2023-05-03T21:28:57.866Z,2.45
2023-05-03T21:31:26.250Z,3.25
2023-05-03T21:33:53.826Z,2.17
2023-05-03T21:36:21.087Z,3.10
2023-05-03T21:39:06.663Z,2.42
2023-05-03T21:41:53.056Z,2.75
2023-05-03T21:44:20.201Z,2.17
2023-05-03T21:46:47.349Z,2.60
2023-05-03T21:49:15.762Z,2.67
2023-05-03T21:51:43.457Z,3.25
2023-05-03T21:54:10.662Z,2.33
2023-05-03T21:56:56.597Z,2.75
2023-05-03T21:59:42.944Z,2.65
2023-05-03T22:02:28.753Z,2.50
2023-05-03T22:04:56.010Z,2.67
2023-05-03T22:07:23.147Z,3.13
2023-05-03T22:09:50.566Z,2.75
2023-05-03T22:12:36.441Z,2.50
2023-05-03T22:15:04.230Z,2.55
2023-05-03T22:17:32.496Z,2.40
2023-05-03T22:19:59.609Z,2.92
2023-05-03T22:22:26.897Z,2.75
2023-05-03T22:24:54.791Z,2.55
2023-05-03T22:27:40.813Z,2.65
2023-05-03T22:30:09.137Z,2.20
2023-05-03T22:32:55.116Z,2.40
2023-05-03T22:35:22.454Z,2.58
2023-05-03T22:37:49.852Z,2.63
2023-05-03T22:40:35.659Z,2.97
2023-05-03T22:43:02.906Z,2.28
2023-05-03T22:45:30.551Z,2.50
2023-05-03T22:47:57.857Z,2.30
2023-05-03T22:50:25.088Z,2.38
2023-05-03T22:52:52.304Z,2.10
2023-05-03T22:55:19.568Z,2.40
2023-05-03T22:57:47.558Z,1.92
2023-05-03T23:00:33.248Z,1.70
2023-05-03T23:03:00.640Z,1.63
2023-05-03T23:05:27.891Z,2.17
2023-05-03T23:07:55.171Z,1.75
2023-05-03T23:10:22.245Z,1.88
2023-05-03T23:12:50.267Z,1.70
2023-05-03T23:15:17.742Z,2.25
2023-05-03T23:17:45.463Z,1.75
2023-05-03T23:20:13.372Z,1.73
2023-05-03T23:22:42.376Z,1.70
2023-05-03T23:25:47.122Z,2.00
2023-05-03T23:28:14.537Z,1.40
2023-05-03T23:30:44.338Z,1.73
2023-05-03T23:33:31.794Z,1.92
2023-05-03T23:35:59.040Z,1.90
2023-05-03T23:38:26.730Z,2.08
2023-05-03T23:40:54.094Z,2.10
2023-05-03T23:43:21.513Z,1.90
2023-05-03T23:45:48.749Z,1.88
2023-05-03T23:48:16.015Z,2.03
2023-05-03T23:50:43.308Z,2.10
2023-05-03T23:53:28.904Z,2.08
2023-05-03T23:55:56.522Z,2.40
2023-05-03T23:58:23.815Z,2.08
